Time;durP1;ratioP1;P1;durP2;ratioP2;P2;SDS_P1;SDS_P2;PMS_P1;PMS_P2;Temp;Humidity;BMP_temperature;BMP_pressure;BME280_temperature;BME280_humidity;BME280_pressure;Samples;Min_cycle;Max_cycle;Signal;HPM_P1;HPM_P2
2020/12/30 00:00:28;;;;;;;38.67;21.33;;;2.30;94.70;;;;;;4985908;28;20058;-70
2020/12/30 00:02:54;;;;;;;39.08;22.63;;;2.20;94.60;;;;;;4992734;28;20030;-70
2020/12/30 00:05:20;;;;;;;40.45;22.60;;;2.10;94.70;;;;;;4986817;28;20023;-70
2020/12/30 00:07:46;;;;;;;41.13;22.25;;;2.00;94.70;;;;;;4993193;28;20031;-70
2020/12/30 00:10:13;;;;;;;43.38;22.98;;;1.90;94.70;;;;;;4997420;28;20065;-70
2020/12/30 00:12:39;;;;;;;42.90;23.05;;;1.90;94.80;;;;;;4991525;28;20116;-70
2020/12/30 00:15:06;;;;;;;46.63;24.73;;;1.80;94.80;;;;;;4986287;28;20033;-70
2020/12/30 00:17:32;;;;;;;47.92;24.58;;;1.80;94.90;;;;;;4984826;28;20571;-70
2020/12/30 00:19:58;;;;;;;43.22;24.17;;;1.80;94.90;;;;;;4986413;28;20038;-70
2020/12/30 00:22:23;;;;;;;44.75;23.98;;;1.80;94.90;;;;;;4980910;28;20120;-70
2020/12/30 00:24:49;;;;;;;38.00;23.23;;;1.70;94.90;;;;;;4988718;28;20034;-70
2020/12/30 00:27:14;;;;;;;48.42;25.80;;;1.70;95.00;;;;;;4981265;28;20166;-71
2020/12/30 00:29:40;;;;;;;45.10;24.08;;;1.60;95.00;;;;;;4980826;28;20085;-70
2020/12/30 00:32:10;;;;;;;45.00;24.83;;;1.60;95.00;;;;;;4984596;28;20057;-70
2020/12/30 00:34:36;;;;;;;48.90;26.40;;;1.50;95.00;;;;;;4986711;28;20033;-70
2020/12/30 00:37:01;;;;;;;51.72;26.35;;;1.50;95.10;;;;;;4982490;28;20034;-70
2020/12/30 00:39:27;;;;;;;46.35;23.67;;;1.40;95.00;;;;;;4980341;28;20031;-70
2020/12/30 00:41:53;;;;;;;48.03;25.73;;;1.30;95.00;;;;;;4987860;28;20022;-70
2020/12/30 00:44:19;;;;;;;52.33;25.50;;;1.30;95.10;;;;;;4983681;28;20070;-70
2020/12/30 00:46:44;;;;;;;46.33;24.70;;;1.30;95.10;;;;;;4979149;28;20027;-70
2020/12/30 00:49:10;;;;;;;41.47;22.60;;;1.20;95.10;;;;;;4981298;28;20050;-70
2020/12/30 00:51:36;;;;;;;45.38;24.75;;;1.20;95.20;;;;;;4982103;28;20034;-70
2020/12/30 00:54:02;;;;;;;50.45;25.52;;;1.10;95.20;;;;;;4979156;28;20019;-70
2020/12/30 00:56:28;;;;;;;53.05;25.65;;;1.10;95.20;;;;;;4976436;28;20089;-70
2020/12/30 00:58:53;;;;;;;53.13;26.40;;;1.00;95.20;;;;;;4979897;28;20408;-70
2020/12/30 01:01:19;;;;;;;53.33;25.70;;;1.00;95.30;;;;;;4982714;28;20033;-70
2020/12/30 01:03:44;;;;;;;51.00;27.20;;;1.00;95.30;;;;;;4980282;28;20536;-70
2020/12/30 01:06:13;;;;;;;49.25;26.77;;;1.00;95.40;;;;;;4982095;28;20031;-70
2020/12/30 01:08:38;;;;;;;53.90;27.75;;;1.00;95.50;;;;;;4984452;28;20058;-70
2020/12/30 01:11:04;;;;;;;50.92;26.83;;;0.90;95.40;;;;;;4987934;28;20058;-70
2020/12/30 01:13:30;;;;;;;47.00;25.75;;;0.90;95.40;;;;;;4982075;28;20477;-70
2020/12/30 01:15:55;;;;;;;49.75;25.15;;;0.90;95.50;;;;;;4980486;28;20491;-70
2020/12/30 01:18:21;;;;;;;51.53;26.80;;;0.90;95.40;;;;;;4982981;28;20519;-70
2020/12/30 01:20:46;;;;;;;47.85;25.75;;;0.90;95.50;;;;;;4985125;28;20706;-70
2020/12/30 01:23:12;;;;;;;48.03;26.10;;;0.90;95.50;;;;;;4986964;28;20042;-70
2020/12/30 01:25:37;;;;;;;56.40;27.85;;;0.80;95.50;;;;;;4985891;28;20062;-70
2020/12/30 01:28:03;;;;;;;53.65;25.92;;;0.90;95.60;;;;;;4983229;28;20488;-70
2020/12/30 01:30:28;;;;;;;52.65;27.00;;;0.90;95.60;;;;;;4984375;28;20031;-70
2020/12/30 01:32:54;;;;;;;52.95;26.58;;;0.80;95.60;;;;;;4989193;28;20019;-70
2020/12/30 01:35:20;;;;;;;47.85;26.45;;;0.80;95.60;;;;;;4986534;28;20034;-70
2020/12/30 01:37:45;;;;;;;54.28;25.95;;;0.80;95.70;;;;;;4989465;28;20485;-70
2020/12/30 01:40:11;;;;;;;58.97;27.55;;;0.80;95.80;;;;;;4988161;28;20547;-70
2020/12/30 01:42:44;;;;;;;54.28;27.40;;;0.90;95.80;;;;;;4985954;28;20481;-69
2020/12/30 01:45:09;;;;;;;48.10;26.35;;;1.00;95.90;;;;;;4986984;28;20042;-69
2020/12/30 01:47:35;;;;;;;56.08;28.27;;;1.00;95.90;;;;;;4989433;28;20035;-70
2020/12/30 01:50:01;;;;;;;59.42;30.55;;;1.10;95.90;;;;;;4984044;28;20162;-70
2020/12/30 01:52:27;;;;;;;53.53;27.67;;;1.20;95.90;;;;;;4984131;28;20023;-70
2020/12/30 01:54:53;;;;;;;52.13;27.20;;;1.20;95.90;;;;;;4985251;28;20113;-70
2020/12/30 01:57:20;;;;;;;52.83;27.85;;;1.30;95.80;;;;;;4989307;28;20038;-70
2020/12/30 01:59:48;;;;;;;55.35;28.20;;;1.40;95.80;;;;;;4984553;28;20037;-70
2020/12/30 02:02:15;;;;;;;53.35;27.65;;;1.40;95.70;;;;;;4985539;28;20496;-70
2020/12/30 02:04:51;;;;;;;45.33;25.08;;;1.40;95.90;;;;;;4984669;28;20038;-69
2020/12/30 02:07:18;;;;;;;57.92;27.08;;;1.50;95.70;;;;;;4985497;28;20081;-69
2020/12/30 02:09:44;;;;;;;46.67;24.48;;;1.50;95.80;;;;;;4986616;28;20154;-69
2020/12/30 02:12:10;;;;;;;51.78;26.73;;;1.60;95.80;;;;;;4984696;28;20490;-69
2020/12/30 02:14:36;;;;;;;47.40;25.13;;;1.60;95.80;;;;;;4984267;28;20041;-69
2020/12/30 02:17:02;;;;;;;50.30;26.30;;;1.70;95.80;;;;;;4986515;28;20029;-69
2020/12/30 02:19:28;;;;;;;48.10;25.70;;;1.80;95.80;;;;;;4982886;28;20023;-69
2020/12/30 02:21:58;;;;;;;54.53;27.70;;;1.80;95.70;;;;;;4982220;28;20034;-69
2020/12/30 02:24:31;;;;;;;52.15;25.98;;;1.90;95.70;;;;;;4981014;28;20079;-68
2020/12/30 02:26:58;;;;;;;52.53;26.60;;;1.90;95.70;;;;;;4995049;28;20027;-69
2020/12/30 02:29:23;;;;;;;47.28;24.98;;;2.00;95.60;;;;;;4997271;28;20397;-69
2020/12/30 02:31:49;;;;;;;51.20;25.27;;;2.00;95.60;;;;;;4999100;28;20022;-69
2020/12/30 02:34:16;;;;;;;51.58;24.80;;;2.10;95.60;;;;;;4986011;28;20173;-69
2020/12/30 02:36:41;;;;;;;48.50;25.00;;;2.10;95.60;;;;;;4987896;28;20023;-69
2020/12/30 02:39:07;;;;;;;45.75;25.65;;;2.10;95.50;;;;;;4986398;28;20370;-69
2020/12/30 02:41:33;;;;;;;47.22;23.45;;;2.20;95.50;;;;;;4979742;28;20046;-69
2020/12/30 02:44:03;;;;;;;49.17;27.42;;;2.20;95.40;;;;;;4982564;28;20043;-69
2020/12/30 02:46:28;;;;;;;45.90;25.15;;;2.20;95.40;;;;;;4986006;28;20097;-69
2020/12/30 02:48:54;;;;;;;42.22;23.58;;;2.20;95.40;;;;;;4983241;28;20500;-69
2020/12/30 02:51:20;;;;;;;42.47;23.40;;;2.20;95.40;;;;;;4982461;28;20146;-69
2020/12/30 02:53:45;;;;;;;47.47;24.45;;;2.20;95.40;;;;;;4982444;28;20033;-69
2020/12/30 02:56:11;;;;;;;43.00;22.27;;;2.20;95.40;;;;;;4984847;28;21019;-69
2020/12/30 02:58:37;;;;;;;46.42;24.00;;;2.20;95.40;;;;;;4979720;28;20052;-69
2020/12/30 03:01:08;;;;;;;41.30;22.50;;;2.20;95.40;;;;;;4981075;28;20038;-69
2020/12/30 03:03:34;;;;;;;50.47;23.92;;;2.20;95.40;;;;;;4981974;28;20034;-68
2020/12/30 03:05:59;;;;;;;46.72;23.80;;;2.20;95.50;;;;;;4986730;28;20034;-69
2020/12/30 03:08:25;;;;;;;44.88;23.05;;;2.20;95.50;;;;;;4985438;28;20089;-69
2020/12/30 03:10:50;;;;;;;43.75;23.27;;;2.20;95.50;;;;;;4983429;28;20117;-69
2020/12/30 03:13:15;;;;;;;45.03;22.80;;;2.30;95.50;;;;;;4981833;28;20038;-69
2020/12/30 03:15:41;;;;;;;51.63;24.98;;;2.30;95.50;;;;;;4983317;28;20050;-69
2020/12/30 03:18:06;;;;;;;47.38;24.08;;;2.40;95.50;;;;;;4999148;28;20340;-69
2020/12/30 03:20:32;;;;;;;44.60;24.70;;;2.40;95.50;;;;;;4983340;28;20042;-69
2020/12/30 03:22:57;;;;;;;45.92;24.15;;;2.40;95.50;;;;;;4982749;28;20039;-69
2020/12/30 03:25:23;;;;;;;51.10;26.77;;;2.40;95.50;;;;;;4987841;28;20081;-69
2020/12/30 03:27:48;;;;;;;44.75;23.85;;;2.50;95.40;;;;;;4986956;28;20062;-69
2020/12/30 03:30:14;;;;;;;44.00;22.90;;;2.50;95.40;;;;;;4983421;28;20031;-70
2020/12/30 03:32:39;;;;;;;48.17;22.92;;;2.50;95.40;;;;;;4980961;28;20030;-69
2020/12/30 03:35:05;;;;;;;50.75;22.90;;;2.50;95.40;;;;;;4979989;28;20026;-70
2020/12/30 03:37:32;;;;;;;44.70;23.77;;;2.50;95.40;;;;;;4982485;28;20030;-69
2020/12/30 03:39:57;;;;;;;50.42;24.40;;;2.40;95.30;;;;;;4980656;28;20058;-70
2020/12/30 03:42:23;;;;;;;40.70;23.25;;;2.40;95.30;;;;;;4983113;28;20061;-70
2020/12/30 03:44:48;;;;;;;46.15;24.00;;;2.40;95.30;;;;;;4982809;28;20042;-70
2020/12/30 03:47:14;;;;;;;45.47;23.58;;;2.30;95.30;;;;;;4980432;28;20062;-69
2020/12/30 03:49:39;;;;;;;42.25;23.58;;;2.30;95.40;;;;;;4980330;28;20476;-70
2020/12/30 03:52:05;;;;;;;46.38;23.35;;;2.30;95.40;;;;;;4985387;28;20027;-70
2020/12/30 03:54:30;;;;;;;47.92;24.33;;;2.30;95.50;;;;;;4983716;28;20072;-70
2020/12/30 03:56:56;;;;;;;43.90;22.63;;;2.20;95.60;;;;;;4981500;28;20037;-70
2020/12/30 03:59:21;;;;;;;47.47;25.77;;;2.30;95.60;;;;;;4984647;28;20054;-70
2020/12/30 04:01:47;;;;;;;46.65;25.30;;;2.20;95.60;;;;;;4987774;28;20065;-70
2020/12/30 04:04:13;;;;;;;47.97;24.02;;;2.30;95.70;;;;;;4988320;28;20077;-70
2020/12/30 04:06:40;;;;;;;49.10;25.33;;;2.30;95.70;;;;;;4981826;28;20035;-70
2020/12/30 04:09:05;;;;;;;54.03;26.92;;;2.30;95.70;;;;;;4984986;28;20497;-70
2020/12/30 04:11:31;;;;;;;47.63;24.55;;;2.30;95.70;;;;;;4999050;28;20054;-70
2020/12/30 04:13:56;;;;;;;46.25;24.17;;;2.30;95.60;;;;;;4978418;28;20069;-70
2020/12/30 04:16:23;;;;;;;44.03;25.90;;;2.30;95.50;;;;;;4978470;28;20026;-70
2020/12/30 04:18:49;;;;;;;46.08;24.50;;;2.20;95.50;;;;;;4979333;28;20030;-69
2020/12/30 04:21:21;;;;;;;47.47;25.08;;;2.20;95.60;;;;;;4979879;28;20034;-70
2020/12/30 04:23:48;;;;;;;47.67;24.45;;;2.20;95.60;;;;;;4996026;28;20039;-70
2020/12/30 04:26:14;;;;;;;42.97;24.33;;;2.10;95.60;;;;;;4981571;28;20521;-70
2020/12/30 04:28:39;;;;;;;47.67;24.77;;;2.10;95.60;;;;;;4981341;28;20109;-70
2020/12/30 04:31:08;;;;;;;46.53;24.58;;;2.10;95.70;;;;;;4981940;28;20030;-70
2020/12/30 04:33:33;;;;;;;44.55;24.05;;;2.10;95.70;;;;;;4978603;28;20030;-70
2020/12/30 04:35:59;;;;;;;42.35;23.85;;;2.10;95.80;;;;;;4979087;28;20481;-70
2020/12/30 04:38:24;;;;;;;45.33;24.88;;;2.10;95.80;;;;;;4979545;28;20102;-70
2020/12/30 04:40:50;;;;;;;43.35;23.70;;;2.10;95.80;;;;;;4977361;28;20026;-70
2020/12/30 04:43:16;;;;;;;51.95;24.35;;;2.10;95.80;;;;;;4979409;28;20046;-70
2020/12/30 04:45:43;;;;;;;42.13;24.58;;;2.00;95.80;;;;;;4983698;28;20560;-70
2020/12/30 04:48:12;;;;;;;48.67;26.92;;;2.10;95.90;;;;;;4979203;28;20514;-70
2020/12/30 04:50:38;;;;;;;45.63;25.23;;;2.10;96.00;;;;;;4981373;28;20166;-70
2020/12/30 04:53:04;;;;;;;53.95;28.88;;;2.10;95.90;;;;;;4979360;28;20103;-70
2020/12/30 04:55:31;;;;;;;47.15;24.85;;;2.10;95.90;;;;;;4980630;28;20106;-70
2020/12/30 04:58:07;;;;;;;52.78;26.67;;;2.10;95.90;;;;;;4978134;28;20441;-70
2020/12/30 05:00:38;;;;;;;50.88;26.58;;;2.10;95.90;;;;;;4985140;28;20026;-70
2020/12/30 05:03:09;;;;;;;55.40;27.35;;;2.10;95.90;;;;;;4978997;28;20377;-70
2020/12/30 05:05:38;;;;;;;52.58;27.23;;;2.10;95.90;;;;;;4975471;28;20031;-70
2020/12/30 05:08:10;;;;;;;49.58;25.15;;;2.10;95.90;;;;;;4970792;28;20027;-70
2020/12/30 05:10:41;;;;;;;48.78;25.80;;;2.10;96.00;;;;;;4978491;28;20058;-70
2020/12/30 05:13:07;;;;;;;51.17;26.73;;;2.10;96.10;;;;;;4978872;28;20447;-70
2020/12/30 05:15:33;;;;;;;49.05;27.60;;;2.20;96.20;;;;;;4977495;28;20355;-70
2020/12/30 05:18:07;;;;;;;50.88;28.20;;;2.20;96.10;;;;;;4980188;28;20030;-70
2020/12/30 05:20:36;;;;;;;59.13;28.50;;;2.30;96.20;;;;;;4994040;28;20026;-70
2020/12/30 05:23:11;;;;;;;50.67;28.15;;;2.40;96.20;;;;;;4978730;28;20082;-70
2020/12/30 05:25:38;;;;;;;50.50;28.00;;;2.50;96.10;;;;;;4977026;28;20031;-70
2020/12/30 05:28:09;;;;;;;52.08;28.48;;;2.50;96.10;;;;;;4976234;28;20495;-70
2020/12/30 05:30:36;;;;;;;45.92;24.75;;;2.50;96.00;;;;;;4984356;28;20400;-70
2020/12/30 05:33:03;;;;;;;50.58;28.98;;;2.50;96.00;;;;;;4981465;28;20110;-69
2020/12/30 05:35:29;;;;;;;52.45;28.58;;;2.60;96.00;;;;;;4977946;28;20023;-69
2020/12/30 05:37:55;;;;;;;53.45;28.80;;;2.60;96.00;;;;;;4982380;28;20469;-70
2020/12/30 05:40:26;;;;;;;49.45;27.92;;;2.60;96.00;;;;;;4980027;28;20389;-70
2020/12/30 05:42:53;;;;;;;49.80;27.40;;;2.60;96.00;;;;;;4986400;28;20027;-69
2020/12/30 05:45:20;;;;;;;52.47;28.95;;;2.60;96.10;;;;;;4982760;28;20480;-69
2020/12/30 05:47:46;;;;;;;48.78;26.30;;;2.70;96.10;;;;;;4992334;28;20031;-70
2020/12/30 05:50:20;;;;;;;49.88;27.05;;;2.70;96.00;;;;;;4990174;28;20062;-70
2020/12/30 05:52:46;;;;;;;53.50;26.67;;;2.80;96.10;;;;;;4979050;28;20027;-69
2020/12/30 05:55:11;;;;;;;50.35;28.80;;;2.80;96.10;;;;;;4981307;28;20054;-70
2020/12/30 05:57:37;;;;;;;48.03;27.63;;;2.90;96.10;;;;;;4976660;28;20078;-69
2020/12/30 06:00:12;;;;;;;44.78;26.40;;;2.90;96.00;;;;;;4975873;28;20026;-69
2020/12/30 06:02:43;;;;;;;48.10;26.85;;;2.90;96.00;;;;;;4978579;28;20037;-69
2020/12/30 06:05:12;;;;;;;45.70;27.05;;;3.00;96.00;;;;;;4979202;28;20057;-69
2020/12/30 06:07:43;;;;;;;47.67;26.02;;;3.00;96.00;;;;;;4977032;28;20109;-70
2020/12/30 06:10:20;;;;;;;54.50;27.13;;;3.00;95.90;;;;;;4983084;28;20030;-70
2020/12/30 06:12:49;;;;;;;50.08;25.58;;;3.00;95.90;;;;;;4982241;28;20069;-71
2020/12/30 06:15:33;;;;;;;49.70;25.55;;;3.00;95.90;;;;;;4983893;28;20027;-70
2020/12/30 06:18:07;;;;;;;48.58;27.50;;;3.00;95.90;;;;;;4981435;28;20114;-71
2020/12/30 06:20:37;;;;;;;47.17;24.02;;;3.00;95.90;;;;;;4979010;28;20429;-70
2020/12/30 06:23:13;;;;;;;47.22;26.35;;;3.10;96.00;;;;;;4982677;28;20081;-70
2020/12/30 06:25:44;;;;;;;46.97;25.50;;;3.10;95.90;;;;;;4981466;28;20095;-70
2020/12/30 06:28:10;;;;;;;46.22;24.77;;;3.10;95.90;;;;;;4982298;28;20058;-70
2020/12/30 06:30:37;;;;;;;50.28;26.42;;;3.10;96.20;;;;;;4980968;28;20035;-70
2020/12/30 06:33:04;;;;;;;44.55;23.85;;;3.10;95.90;;;;;;4982674;28;20023;-68
2020/12/30 06:35:32;;;;;;;47.38;25.17;;;3.10;95.90;;;;;;4987111;28;20035;-68
2020/12/30 06:37:58;;;;;;;46.00;24.42;;;3.10;95.80;;;;;;4983497;28;20031;-68
2020/12/30 06:40:23;;;;;;;42.80;25.23;;;3.10;95.80;;;;;;4980917;28;20096;-68
2020/12/30 06:43:08;;;;;;;39.50;23.30;;;3.10;95.80;;;;;;4983398;28;20069;-68
2020/12/30 06:45:42;;;;;;;46.55;23.98;;;3.10;95.70;;;;;;4982332;28;20109;-68
2020/12/30 06:48:09;;;;;;;42.22;23.83;;;3.10;95.70;;;;;;4982171;28;20034;-68
2020/12/30 06:50:35;;;;;;;37.80;23.30;;;3.10;95.80;;;;;;4983777;28;20128;-68
2020/12/30 06:53:29;;;;;;;43.10;23.77;;;3.10;95.80;;;;;;4982647;28;20490;-69
2020/12/30 06:55:56;;;;;;;40.67;21.73;;;3.10;95.80;;;;;;4982271;28;20105;-69
2020/12/30 06:58:42;;;;;;;43.95;23.55;;;3.10;95.80;;;;;;4981585;28;20062;-69
2020/12/30 07:01:08;;;;;;;44.13;24.23;;;3.10;95.80;;;;;;4977861;28;20022;-69
2020/12/30 07:03:34;;;;;;;40.55;23.17;;;3.10;96.10;;;;;;4983056;28;20041;-69
2020/12/30 07:06:24;;;;;;;46.38;24.38;;;3.00;95.80;;;;;;4987090;28;20042;-69
2020/12/30 07:08:50;;;;;;;40.00;22.67;;;3.10;95.80;;;;;;4984221;28;20042;-69
2020/12/30 07:11:37;;;;;;;45.95;24.38;;;3.10;95.80;;;;;;4981340;28;20038;-69
2020/12/30 07:14:09;;;;;;;41.97;22.60;;;3.10;95.70;;;;;;4976250;28;20027;-69
2020/12/30 07:16:35;;;;;;;41.75;23.00;;;3.10;95.80;;;;;;4979075;28;20027;-70
2020/12/30 07:19:08;;;;;;;47.70;24.77;;;3.10;95.80;;;;;;4982547;28;20026;-70
2020/12/30 07:21:46;;;;;;;40.00;22.70;;;3.10;95.80;;;;;;4983645;28;20030;-70
2020/12/30 07:24:17;;;;;;;42.85;22.52;;;3.20;95.80;;;;;;4982765;28;20130;-70
2020/12/30 07:26:45;;;;;;;40.33;21.80;;;3.20;95.80;;;;;;4989389;28;20039;-70
2020/12/30 07:29:13;;;;;;;37.72;22.45;;;3.20;95.80;;;;;;4982260;28;20044;-71
2020/12/30 07:31:39;;;;;;;37.75;22.45;;;3.20;95.70;;;;;;4978349;28;20022;-70
2020/12/30 07:34:24;;;;;;;36.95;22.23;;;3.20;95.70;;;;;;4983000;28;20022;-71
2020/12/30 07:36:50;;;;;;;35.72;21.48;;;3.30;96.00;;;;;;4978406;28;20036;-71
2020/12/30 07:39:21;;;;;;;39.53;22.65;;;3.30;95.70;;;;;;4979491;28;20026;-69
2020/12/30 07:41:47;;;;;;;39.72;22.98;;;3.30;95.70;;;;;;4977536;28;20023;-69
2020/12/30 07:44:13;;;;;;;37.83;22.88;;;3.30;95.70;;;;;;4978681;28;20097;-69
2020/12/30 07:46:38;;;;;;;42.80;23.08;;;3.30;95.70;;;;;;4979519;28;20030;-69
2020/12/30 07:49:12;;;;;;;40.28;22.13;;;3.40;95.80;;;;;;4983859;28;20050;-70
2020/12/30 07:52:05;;;;;;;43.45;24.17;;;3.40;95.70;;;;;;4982504;28;20109;-71
2020/12/30 07:54:30;;;;;;;42.50;24.25;;;3.40;95.70;;;;;;4975693;28;20042;-71
2020/12/30 07:57:13;;;;;;;41.92;22.75;;;3.40;95.70;;;;;;4977991;28;20389;-71
2020/12/30 07:59:40;;;;;;;40.38;22.63;;;3.50;95.80;;;;;;4978993;28;20034;-71
2020/12/30 08:02:16;;;;;;;39.03;23.05;;;3.50;95.80;;;;;;4984723;28;20405;-71
2020/12/30 08:04:44;;;;;;;41.33;22.73;;;3.50;95.70;;;;;;4978798;28;20027;-71
2020/12/30 08:07:11;;;;;;;41.88;24.20;;;3.50;95.70;;;;;;4978067;28;20455;-70
2020/12/30 08:09:41;;;;;;;40.28;23.17;;;3.50;95.80;;;;;;4980814;28;20483;-70
2020/12/30 08:12:11;;;;;;;39.03;24.05;;;3.60;95.80;;;;;;4987226;28;20156;-71
2020/12/30 08:14:38;;;;;;;41.22;24.10;;;3.60;95.80;;;;;;4983086;28;20034;-70
2020/12/30 08:17:14;;;;;;;42.92;23.35;;;3.60;95.80;;;;;;4977362;28;20541;-70
2020/12/30 08:19:48;;;;;;;42.25;24.67;;;3.60;95.80;;;;;;4980426;28;20501;-69
2020/12/30 08:22:18;;;;;;;40.25;23.73;;;3.70;95.80;;;;;;4976193;28;20066;-70
2020/12/30 08:24:55;;;;;;;43.60;24.45;;;3.70;95.70;;;;;;4984855;28;20030;-70
2020/12/30 08:27:28;;;;;;;42.80;23.95;;;3.70;95.70;;;;;;4979011;28;20041;-70
2020/12/30 08:29:55;;;;;;;45.08;24.90;;;3.70;95.70;;;;;;4975624;28;20041;-71
2020/12/30 08:32:34;;;;;;;41.13;23.67;;;3.70;95.70;;;;;;4977675;28;20070;-71
2020/12/30 08:35:06;;;;;;;43.35;24.67;;;3.70;95.70;;;;;;4977301;28;20027;-70
2020/12/30 08:37:38;;;;;;;41.35;22.58;;;3.60;95.70;;;;;;4976433;28;20620;-71
2020/12/30 08:40:03;;;;;;;41.92;24.33;;;3.70;95.80;;;;;;4973522;28;20026;-69
2020/12/30 08:42:54;;;;;;;43.00;24.05;;;3.70;95.80;;;;;;4992781;28;20019;-69
2020/12/30 08:45:27;;;;;;;41.05;23.73;;;3.70;95.80;;;;;;4976527;28;20035;-70
2020/12/30 08:47:55;;;;;;;43.03;24.33;;;3.70;95.80;;;;;;4975351;28;20031;-70
2020/12/30 08:50:23;;;;;;;45.00;25.58;;;3.70;95.80;;;;;;4989176;28;20038;-70
2020/12/30 08:52:50;;;;;;;44.40;25.13;;;3.70;95.80;;;;;;4978088;28;20047;-70
2020/12/30 08:55:16;;;;;;;44.10;24.73;;;3.70;95.80;;;;;;4980442;28;20424;-70
2020/12/30 08:57:43;;;;;;;39.42;23.67;;;3.80;95.70;;;;;;4980389;28;20031;-69
2020/12/30 09:00:23;;;;;;;42.72;25.20;;;3.80;95.70;;;;;;4978685;28;20027;-69
2020/12/30 09:02:53;;;;;;;44.80;24.83;;;3.80;95.70;;;;;;4977473;28;20043;-70
2020/12/30 09:05:30;;;;;;;43.90;24.65;;;3.70;95.60;;;;;;4977506;28;20042;-69
2020/12/30 09:08:13;;;;;;;41.50;24.23;;;3.70;95.70;;;;;;4977008;28;20038;-70
2020/12/30 09:10:39;;;;;;;42.75;24.70;;;3.70;95.70;;;;;;4974938;28;20027;-70
2020/12/30 09:13:11;;;;;;;44.85;25.02;;;3.70;95.70;;;;;;4980611;28;20054;-70
2020/12/30 09:15:37;;;;;;;42.35;24.88;;;3.70;95.60;;;;;;4976623;28;20038;-70
2020/12/30 09:18:03;;;;;;;45.67;25.15;;;3.70;95.70;;;;;;4992582;28;20026;-70
2020/12/30 09:20:31;;;;;;;39.22;23.17;;;3.70;95.80;;;;;;4975284;28;20482;-70
2020/12/30 09:23:00;;;;;;;39.40;23.85;;;3.70;95.80;;;;;;4984558;28;20054;-70
2020/12/30 09:25:27;;;;;;;40.97;23.13;;;3.70;95.90;;;;;;4980621;28;20035;-70
2020/12/30 09:27:53;;;;;;;42.75;23.40;;;3.70;95.60;;;;;;4994047;28;20466;-70
2020/12/30 09:30:22;;;;;;;38.13;22.02;;;3.70;95.60;;;;;;4975489;28;20038;-71
2020/12/30 09:32:48;;;;;;;47.85;23.30;;;3.60;95.60;;;;;;4975910;28;20050;-70
2020/12/30 09:35:16;;;;;;;42.88;22.58;;;3.60;95.70;;;;;;4980924;28;20030;-71
2020/12/30 09:37:52;;;;;;;39.85;22.42;;;3.60;95.80;;;;;;4991635;28;20019;-70
2020/12/30 09:40:18;;;;;;;38.25;22.77;;;3.60;95.80;;;;;;4978509;28;20035;-71
2020/12/30 09:42:45;;;;;;;38.78;21.55;;;3.60;95.80;;;;;;4976373;28;20385;-70
2020/12/30 09:45:16;;;;;;;43.67;24.75;;;3.70;95.80;;;;;;4978141;28;20436;-70
2020/12/30 09:47:42;;;;;;;39.80;23.75;;;3.70;95.80;;;;;;4977555;28;20023;-71
2020/12/30 09:50:14;;;;;;;41.10;23.05;;;3.70;95.80;;;;;;4991491;28;20073;-71
2020/12/30 09:52:42;;;;;;;40.47;23.73;;;3.60;95.90;;;;;;4979489;28;20027;-71
2020/12/30 09:55:09;;;;;;;38.63;22.17;;;3.70;96.00;;;;;;4976792;28;20026;-71
2020/12/30 09:57:36;;;;;;;46.13;24.88;;;3.70;96.00;;;;;;4977532;28;20022;-71
2020/12/30 10:00:06;;;;;;;40.47;22.70;;;3.80;96.00;;;;;;4982544;28;20034;-70
2020/12/30 10:02:31;;;;;;;43.67;23.77;;;3.90;96.00;;;;;;4983894;28;20033;-70
2020/12/30 10:04:57;;;;;;;43.17;23.58;;;3.90;96.00;;;;;;4981047;28;20023;-70
2020/12/30 10:07:23;;;;;;;46.33;25.60;;;4.00;96.20;;;;;;4995655;28;20027;-69
2020/12/30 10:09:48;;;;;;;42.17;22.75;;;4.00;95.90;;;;;;4986599;28;20026;-69
2020/12/30 10:12:14;;;;;;;43.33;25.63;;;4.00;95.90;;;;;;4979712;28;20031;-69
2020/12/30 10:14:39;;;;;;;41.45;25.63;;;4.10;96.00;;;;;;4980557;28;20030;-70
2020/12/30 10:17:08;;;;;;;41.97;23.75;;;4.20;95.90;;;;;;4983943;28;20028;-69
2020/12/30 10:19:34;;;;;;;43.53;24.60;;;4.30;95.80;;;;;;4979732;28;20038;-70
2020/12/30 10:22:08;;;;;;;43.53;23.65;;;4.30;95.80;;;;;;4981600;28;20232;-70
2020/12/30 10:24:35;;;;;;;39.30;23.85;;;4.30;95.70;;;;;;4984982;28;20037;-69
2020/12/30 10:27:00;;;;;;;41.45;23.67;;;4.30;95.70;;;;;;4983908;28;20470;-69
2020/12/30 10:29:28;;;;;;;45.85;26.58;;;4.30;95.60;;;;;;4982420;28;20050;-69
2020/12/30 10:31:55;;;;;;;47.92;27.05;;;4.40;95.70;;;;;;4981332;28;20034;-69
2020/12/30 10:34:21;;;;;;;41.63;24.52;;;4.40;95.70;;;;;;4981250;28;20035;-70
2020/12/30 10:36:47;;;;;;;42.08;24.80;;;4.50;95.70;;;;;;4979251;28;20023;-70
2020/12/30 10:39:12;;;;;;;44.28;25.23;;;4.60;95.60;;;;;;4981186;28;20033;-70
2020/12/30 10:41:38;;;;;;;44.05;25.88;;;4.60;95.60;;;;;;4981583;28;20065;-69
2020/12/30 10:44:03;;;;;;;43.15;25.17;;;4.60;95.50;;;;;;4977148;28;20034;-69
2020/12/30 10:46:29;;;;;;;42.70;24.88;;;4.60;95.40;;;;;;4984509;28;20023;-69
2020/12/30 10:48:54;;;;;;;44.53;25.60;;;4.60;95.40;;;;;;4981627;28;20054;-69
2020/12/30 10:51:20;;;;;;;42.97;25.80;;;4.60;95.40;;;;;;4980718;28;20114;-69
2020/12/30 10:53:45;;;;;;;43.60;26.52;;;4.60;95.40;;;;;;4982574;28;20045;-68
2020/12/30 10:56:13;;;;;;;40.75;23.08;;;4.60;95.40;;;;;;4981623;28;20061;-69
2020/12/30 10:58:39;;;;;;;45.10;25.95;;;4.70;95.50;;;;;;4984483;28;20030;-69
2020/12/30 11:01:12;;;;;;;40.95;24.85;;;4.80;95.60;;;;;;4982689;28;20029;-69
2020/12/30 11:03:38;;;;;;;37.60;23.35;;;4.80;95.50;;;;;;4978540;28;20023;-69
2020/12/30 11:06:04;;;;;;;33.67;22.30;;;4.90;95.50;;;;;;4979029;28;20045;-68
2020/12/30 11:08:30;;;;;;;38.88;22.40;;;5.00;95.40;;;;;;4982396;28;20031;-68
2020/12/30 11:10:57;;;;;;;34.33;21.63;;;5.00;95.30;;;;;;4983307;28;20118;-68
2020/12/30 11:13:23;;;;;;;33.85;20.75;;;5.10;95.60;;;;;;4984253;28;20073;-69
2020/12/30 11:15:49;;;;;;;35.28;21.48;;;5.20;95.20;;;;;;4977722;28;20502;-69
2020/12/30 11:18:14;;;;;;;36.13;22.58;;;5.20;95.00;;;;;;4977689;28;20113;-69
2020/12/30 11:20:40;;;;;;;36.22;21.55;;;5.20;95.00;;;;;;4991842;28;20030;-69
2020/12/30 11:23:06;;;;;;;31.10;19.60;;;5.20;94.90;;;;;;4979926;28;20059;-69
2020/12/30 11:25:31;;;;;;;34.17;19.45;;;5.20;94.90;;;;;;4979472;28;20031;-69
2020/12/30 11:27:57;;;;;;;31.15;20.83;;;5.20;94.90;;;;;;4978513;28;20030;-69
2020/12/30 11:30:22;;;;;;;33.05;18.67;;;5.20;94.90;;;;;;4980855;28;20504;-70
2020/12/30 11:32:48;;;;;;;27.95;18.40;;;5.30;95.00;;;;;;4981714;28;20504;-70
2020/12/30 11:35:13;;;;;;;33.03;19.75;;;5.30;94.90;;;;;;4979532;28;20095;-70
2020/12/30 11:37:39;;;;;;;26.52;17.10;;;5.40;94.90;;;;;;4976867;28;20026;-68
2020/12/30 11:40:05;;;;;;;27.50;17.80;;;5.40;94.90;;;;;;4978769;28;20034;-68
2020/12/30 11:42:31;;;;;;;30.42;17.85;;;5.40;94.80;;;;;;4977550;28;20026;-68
2020/12/30 11:44:56;;;;;;;31.27;16.98;;;5.40;94.80;;;;;;4977891;28;20388;-68
2020/12/30 11:47:26;;;;;;;29.73;17.15;;;5.50;94.80;;;;;;4984084;28;20393;-69
2020/12/30 11:49:52;;;;;;;26.05;16.95;;;5.50;94.80;;;;;;4980307;28;20039;-70
2020/12/30 11:52:18;;;;;;;31.48;18.33;;;5.50;94.80;;;;;;4980220;28;20150;-70
2020/12/30 11:54:43;;;;;;;28.30;16.52;;;5.50;94.80;;;;;;4978036;28;20815;-70
2020/12/30 11:57:09;;;;;;;26.95;16.65;;;5.60;94.90;;;;;;4980399;28;20026;-70
2020/12/30 11:59:35;;;;;;;30.70;16.45;;;5.60;94.80;;;;;;4978634;28;20118;-69
2020/12/30 12:02:00;;;;;;;29.20;17.50;;;5.70;94.80;;;;;;4980980;28;20532;-68
2020/12/30 12:04:26;;;;;;;28.02;17.58;;;5.70;94.80;;;;;;4980198;28;20041;-68
2020/12/30 12:06:59;;;;;;;35.03;19.27;;;5.80;94.80;;;;;;4976415;28;20030;-69
2020/12/30 12:09:26;;;;;;;32.25;18.55;;;5.80;94.70;;;;;;4982262;28;20034;-69
2020/12/30 12:11:52;;;;;;;28.08;18.40;;;5.90;94.70;;;;;;4980919;28;20497;-69
2020/12/30 12:14:18;;;;;;;31.15;19.25;;;5.90;94.70;;;;;;4978494;28;20038;-70
2020/12/30 12:16:56;;;;;;;27.98;18.55;;;6.00;94.70;;;;;;4976518;28;20086;-70
2020/12/30 12:19:23;;;;;;;33.00;20.20;;;6.00;94.50;;;;;;4980977;28;20018;-71
2020/12/30 12:21:49;;;;;;;36.22;19.25;;;6.00;94.40;;;;;;4982838;28;20045;-70
2020/12/30 12:24:15;;;;;;;32.75;19.25;;;6.00;94.50;;;;;;4981392;28;20038;-70
2020/12/30 12:26:41;;;;;;;32.70;19.60;;;6.00;94.70;;;;;;4981310;28;20489;-67
2020/12/30 12:29:34;;;;;;;31.73;19.17;;;6.10;94.60;;;;;;4980212;28;20097;-69
2020/12/30 12:32:05;;;;;;;31.20;18.83;;;6.20;94.50;;;;;;4981122;28;20022;-69
2020/12/30 12:34:35;;;;;;;32.45;18.40;;;6.30;94.40;;;;;;4983580;28;20030;-70
2020/12/30 12:37:01;;;;;;;30.27;18.90;;;6.20;94.30;;;;;;4977485;28;20023;-70
2020/12/30 12:39:26;;;;;;;26.77;16.85;;;6.20;94.30;;;;;;4977193;28;20026;-70